Whitfield, New York
Current Conditions -  °F | °C
As of 11:54 PM on Saturday 22 Nov 2014 (Local Time) from KMGJ Reporting Station
Clear Clear  
Wind Chill: 34°   Ceiling: Unl
Heat Index: 39°   Visibility: 10mi
Dew Point: 19°   Wind: 7mph
Humidity: 45%   Direction: 240°WSW
Pressure: 30.14"   Gusts: NA
Location:  41.8083°N, 74.2318°W
Report Text: KMGJ 230454Z AUTO 24006KT 10SM CLR 04/M07 A3014 RMK AO2 SLP209 T00391072 400501106 TSNO
Loading
Personal Weather Stations






























Interactive Weather Map New forecast layout! Learn more

10-Day Weather Forecast

Advertisements
Track Severe Weather on mobile